sensor_id;sensor_type;location;lat;lon;timestamp;P1;durP1;ratioP1;P2;durP2;ratioP2
16822;SDS011;8528;49.976;11.858;2023-07-20T00:00:04;3.53;;;3.00;;
16822;SDS011;8528;49.976;11.858;2023-07-20T00:02:31;3.10;;;2.80;;
16822;SDS011;8528;49.976;11.858;2023-07-20T00:04:58;3.73;;;2.90;;
16822;SDS011;8528;49.976;11.858;2023-07-20T00:07:25;3.40;;;2.57;;
16822;SDS011;8528;49.976;11.858;2023-07-20T00:09:52;4.50;;;3.13;;
16822;SDS011;8528;49.976;11.858;2023-07-20T00:12:19;3.10;;;2.80;;
16822;SDS011;8528;49.976;11.858;2023-07-20T00:14:48;3.77;;;3.23;;
16822;SDS011;8528;49.976;11.858;2023-07-20T00:17:15;3.20;;;2.70;;
16822;SDS011;8528;49.976;11.858;2023-07-20T00:19:42;5.37;;;3.90;;
16822;SDS011;8528;49.976;11.858;2023-07-20T00:22:08;4.33;;;3.70;;
16822;SDS011;8528;49.976;11.858;2023-07-20T00:24:35;3.83;;;2.97;;
16822;SDS011;8528;49.976;11.858;2023-07-20T00:27:02;3.50;;;3.17;;
16822;SDS011;8528;49.976;11.858;2023-07-20T00:29:29;3.80;;;3.00;;
16822;SDS011;8528;49.976;11.858;2023-07-20T00:31:56;2.77;;;2.50;;
16822;SDS011;8528;49.976;11.858;2023-07-20T00:34:24;4.57;;;2.80;;
16822;SDS011;8528;49.976;11.858;2023-07-20T00:36:51;4.53;;;2.93;;
16822;SDS011;8528;49.976;11.858;2023-07-20T00:39:18;3.37;;;3.07;;
16822;SDS011;8528;49.976;11.858;2023-07-20T00:41:45;3.97;;;2.90;;
16822;SDS011;8528;49.976;11.858;2023-07-20T00:44:12;3.77;;;2.93;;
16822;SDS011;8528;49.976;11.858;2023-07-20T00:46:39;4.37;;;2.77;;
16822;SDS011;8528;49.976;11.858;2023-07-20T00:49:08;3.17;;;2.60;;
16822;SDS011;8528;49.976;11.858;2023-07-20T00:51:35;4.23;;;2.90;;
16822;SDS011;8528;49.976;11.858;2023-07-20T00:54:02;5.37;;;3.10;;
16822;SDS011;8528;49.976;11.858;2023-07-20T00:56:29;4.73;;;3.50;;
16822;SDS011;8528;49.976;11.858;2023-07-20T00:58:56;3.67;;;3.37;;
16822;SDS011;8528;49.976;11.858;2023-07-20T01:01:23;3.50;;;3.10;;
16822;SDS011;8528;49.976;11.858;2023-07-20T01:03:50;5.00;;;3.90;;
16822;SDS011;8528;49.976;11.858;2023-07-20T01:11:36;4.67;;;3.23;;
16822;SDS011;8528;49.976;11.858;2023-07-20T01:14:12;3.53;;;3.23;;
16822;SDS011;8528;49.976;11.858;2023-07-20T01:16:40;6.37;;;3.90;;
16822;SDS011;8528;49.976;11.858;2023-07-20T01:19:07;6.47;;;3.70;;
16822;SDS011;8528;49.976;11.858;2023-07-20T01:21:37;6.13;;;4.20;;
16822;SDS011;8528;49.976;11.858;2023-07-20T01:24:16;4.60;;;3.70;;
16822;SDS011;8528;49.976;11.858;2023-07-20T01:29:36;4.53;;;3.30;;
16822;SDS011;8528;49.976;11.858;2023-07-20T01:32:08;3.87;;;3.23;;
16822;SDS011;8528;49.976;11.858;2023-07-20T01:34:36;7.73;;;3.43;;
16822;SDS011;8528;49.976;11.858;2023-07-20T01:37:05;4.27;;;3.27;;
16822;SDS011;8528;49.976;11.858;2023-07-20T01:39:33;3.83;;;3.27;;
16822;SDS011;8528;49.976;11.858;2023-07-20T01:42:01;3.33;;;3.00;;
16822;SDS011;8528;49.976;11.858;2023-07-20T01:44:28;4.03;;;3.33;;
16822;SDS011;8528;49.976;11.858;2023-07-20T01:46:55;4.77;;;3.43;;
16822;SDS011;8528;49.976;11.858;2023-07-20T01:49:22;3.67;;;3.23;;
16822;SDS011;8528;49.976;11.858;2023-07-20T01:51:49;5.87;;;3.43;;
16822;SDS011;8528;49.976;11.858;2023-07-20T01:54:16;4.27;;;3.03;;
16822;SDS011;8528;49.976;11.858;2023-07-20T01:56:43;5.27;;;3.20;;
16822;SDS011;8528;49.976;11.858;2023-07-20T01:59:09;4.03;;;3.20;;
16822;SDS011;8528;49.976;11.858;2023-07-20T02:01:36;3.77;;;3.37;;
16822;SDS011;8528;49.976;11.858;2023-07-20T02:04:03;4.37;;;3.10;;
16822;SDS011;8528;49.976;11.858;2023-07-20T02:06:30;3.93;;;3.00;;
16822;SDS011;8528;49.976;11.858;2023-07-20T02:08:57;3.87;;;3.10;;
16822;SDS011;8528;49.976;11.858;2023-07-20T02:11:24;4.20;;;3.20;;
16822;SDS011;8528;49.976;11.858;2023-07-20T02:13:51;4.20;;;3.50;;
16822;SDS011;8528;49.976;11.858;2023-07-20T02:16:17;5.63;;;3.50;;
16822;SDS011;8528;49.976;11.858;2023-07-20T02:18:44;6.17;;;3.53;;
16822;SDS011;8528;49.976;11.858;2023-07-20T02:21:11;4.83;;;3.63;;
16822;SDS011;8528;49.976;11.858;2023-07-20T02:23:38;6.77;;;4.57;;
16822;SDS011;8528;49.976;11.858;2023-07-20T02:26:05;5.57;;;3.90;;
16822;SDS011;8528;49.976;11.858;2023-07-20T02:28:32;5.83;;;3.80;;
16822;SDS011;8528;49.976;11.858;2023-07-20T02:30:59;4.00;;;3.60;;
16822;SDS011;8528;49.976;11.858;2023-07-20T02:33:27;4.93;;;3.57;;
16822;SDS011;8528;49.976;11.858;2023-07-20T02:35:53;5.03;;;3.40;;
16822;SDS011;8528;49.976;11.858;2023-07-20T02:38:21;4.80;;;3.23;;
16822;SDS011;8528;49.976;11.858;2023-07-20T02:40:48;4.60;;;3.90;;
16822;SDS011;8528;49.976;11.858;2023-07-20T02:43:15;5.40;;;4.10;;
16822;SDS011;8528;49.976;11.858;2023-07-20T02:45:42;5.43;;;3.53;;
16822;SDS011;8528;49.976;11.858;2023-07-20T02:48:10;5.33;;;3.87;;
16822;SDS011;8528;49.976;11.858;2023-07-20T02:50:36;3.43;;;3.13;;
16822;SDS011;8528;49.976;11.858;2023-07-20T02:53:03;5.77;;;3.67;;
16822;SDS011;8528;49.976;11.858;2023-07-20T02:55:30;4.00;;;3.60;;
16822;SDS011;8528;49.976;11.858;2023-07-20T02:57:57;4.37;;;3.97;;
16822;SDS011;8528;49.976;11.858;2023-07-20T03:00:24;5.90;;;3.70;;
16822;SDS011;8528;49.976;11.858;2023-07-20T03:02:52;4.30;;;3.60;;
16822;SDS011;8528;49.976;11.858;2023-07-20T03:05:22;4.80;;;4.00;;
16822;SDS011;8528;49.976;11.858;2023-07-20T03:07:53;6.97;;;3.80;;
16822;SDS011;8528;49.976;11.858;2023-07-20T03:10:21;3.90;;;3.60;;
16822;SDS011;8528;49.976;11.858;2023-07-20T03:12:48;3.30;;;3.00;;
16822;SDS011;8528;49.976;11.858;2023-07-20T03:15:15;3.80;;;3.50;;
16822;SDS011;8528;49.976;11.858;2023-07-20T03:17:42;3.67;;;3.10;;
16822;SDS011;8528;49.976;11.858;2023-07-20T03:20:09;3.90;;;3.40;;
16822;SDS011;8528;49.976;11.858;2023-07-20T03:22:37;4.43;;;3.87;;
16822;SDS011;8528;49.976;11.858;2023-07-20T03:25:04;3.37;;;3.07;;
16822;SDS011;8528;49.976;11.858;2023-07-20T03:27:31;4.13;;;3.57;;
16822;SDS011;8528;49.976;11.858;2023-07-20T03:29:58;4.53;;;3.73;;
16822;SDS011;8528;49.976;11.858;2023-07-20T03:32:25;5.30;;;4.57;;
16822;SDS011;8528;49.976;11.858;2023-07-20T03:34:52;11.23;;;4.60;;
16822;SDS011;8528;49.976;11.858;2023-07-20T03:37:19;4.80;;;3.70;;
16822;SDS011;8528;49.976;11.858;2023-07-20T03:39:46;4.77;;;3.93;;
16822;SDS011;8528;49.976;11.858;2023-07-20T03:42:12;3.97;;;3.60;;
16822;SDS011;8528;49.976;11.858;2023-07-20T03:44:39;4.53;;;3.97;;
16822;SDS011;8528;49.976;11.858;2023-07-20T03:47:06;6.97;;;6.27;;
16822;SDS011;8528;49.976;11.858;2023-07-20T03:49:33;5.20;;;4.50;;
16822;SDS011;8528;49.976;11.858;2023-07-20T03:52:00;5.10;;;3.67;;
16822;SDS011;8528;49.976;11.858;2023-07-20T03:54:29;4.00;;;3.50;;
16822;SDS011;8528;49.976;11.858;2023-07-20T03:56:56;5.57;;;3.43;;
16822;SDS011;8528;49.976;11.858;2023-07-20T03:59:24;6.77;;;4.90;;
16822;SDS011;8528;49.976;11.858;2023-07-20T04:01:51;4.17;;;3.70;;
16822;SDS011;8528;49.976;11.858;2023-07-20T04:04:18;3.97;;;3.60;;
16822;SDS011;8528;49.976;11.858;2023-07-20T04:06:45;3.60;;;3.30;;
16822;SDS011;8528;49.976;11.858;2023-07-20T04:09:12;5.73;;;4.00;;
16822;SDS011;8528;49.976;11.858;2023-07-20T04:11:39;3.50;;;3.17;;
16822;SDS011;8528;49.976;11.858;2023-07-20T04:14:07;5.30;;;3.60;;
16822;SDS011;8528;49.976;11.858;2023-07-20T04:16:33;4.57;;;3.47;;
16822;SDS011;8528;49.976;11.858;2023-07-20T04:19:00;3.50;;;3.20;;
16822;SDS011;8528;49.976;11.858;2023-07-20T04:21:27;5.33;;;3.83;;
16822;SDS011;8528;49.976;11.858;2023-07-20T04:23:54;4.60;;;3.53;;
16822;SDS011;8528;49.976;11.858;2023-07-20T04:26:21;5.50;;;3.63;;
16822;SDS011;8528;49.976;11.858;2023-07-20T04:28:48;4.57;;;4.00;;
16822;SDS011;8528;49.976;11.858;2023-07-20T04:31:16;4.17;;;3.77;;
16822;SDS011;8528;49.976;11.858;2023-07-20T04:33:43;4.50;;;3.33;;
16822;SDS011;8528;49.976;11.858;2023-07-20T04:36:10;5.20;;;4.20;;
16822;SDS011;8528;49.976;11.858;2023-07-20T04:38:37;7.13;;;4.60;;
16822;SDS011;8528;49.976;11.858;2023-07-20T04:41:04;5.93;;;4.93;;
16822;SDS011;8528;49.976;11.858;2023-07-20T04:43:31;5.93;;;4.77;;
16822;SDS011;8528;49.976;11.858;2023-07-20T04:45:57;5.90;;;4.50;;
16822;SDS011;8528;49.976;11.858;2023-07-20T04:48:25;5.50;;;4.00;;
16822;SDS011;8528;49.976;11.858;2023-07-20T04:50:51;5.10;;;3.37;;
16822;SDS011;8528;49.976;11.858;2023-07-20T04:53:18;4.77;;;4.03;;
16822;SDS011;8528;49.976;11.858;2023-07-20T04:55:49;3.83;;;3.43;;
16822;SDS011;8528;49.976;11.858;2023-07-20T04:58:21;3.53;;;3.20;;
16822;SDS011;8528;49.976;11.858;2023-07-20T05:00:49;6.23;;;4.13;;
16822;SDS011;8528;49.976;11.858;2023-07-20T05:03:16;4.23;;;3.70;;
16822;SDS011;8528;49.976;11.858;2023-07-20T05:05:44;3.70;;;3.30;;
16822;SDS011;8528;49.976;11.858;2023-07-20T05:08:15;5.23;;;3.47;;
16822;SDS011;8528;49.976;11.858;2023-07-20T05:10:42;4.30;;;3.60;;
16822;SDS011;8528;49.976;11.858;2023-07-20T05:13:09;4.10;;;3.30;;
16822;SDS011;8528;49.976;11.858;2023-07-20T05:15:36;4.00;;;2.90;;
16822;SDS011;8528;49.976;11.858;2023-07-20T05:18:03;4.37;;;3.03;;
16822;SDS011;8528;49.976;11.858;2023-07-20T05:20:30;3.33;;;2.87;;
16822;SDS011;8528;49.976;11.858;2023-07-20T05:22:58;3.43;;;3.10;;
16822;SDS011;8528;49.976;11.858;2023-07-20T05:25:25;4.13;;;3.00;;
16822;SDS011;8528;49.976;11.858;2023-07-20T05:27:56;3.37;;;2.87;;
16822;SDS011;8528;49.976;11.858;2023-07-20T05:30:23;4.00;;;2.70;;
16822;SDS011;8528;49.976;11.858;2023-07-20T05:32:49;3.53;;;2.87;;
16822;SDS011;8528;49.976;11.858;2023-07-20T05:35:19;4.63;;;2.90;;
16822;SDS011;8528;49.976;11.858;2023-07-20T05:37:46;4.67;;;2.63;;
16822;SDS011;8528;49.976;11.858;2023-07-20T05:40:14;3.37;;;3.07;;
16822;SDS011;8528;49.976;11.858;2023-07-20T05:42:45;3.33;;;3.03;;
16822;SDS011;8528;49.976;11.858;2023-07-20T05:45:18;4.93;;;3.10;;
16822;SDS011;8528;49.976;11.858;2023-07-20T05:47:46;3.93;;;3.30;;
16822;SDS011;8528;49.976;11.858;2023-07-20T05:50:13;2.97;;;2.70;;
16822;SDS011;8528;49.976;11.858;2023-07-20T05:52:40;3.67;;;3.10;;
16822;SDS011;8528;49.976;11.858;2023-07-20T05:55:07;5.37;;;3.47;;
16822;SDS011;8528;49.976;11.858;2023-07-20T05:57:34;5.37;;;3.30;;
16822;SDS011;8528;49.976;11.858;2023-07-20T06:00:01;4.23;;;3.30;;
16822;SDS011;8528;49.976;11.858;2023-07-20T06:02:29;3.53;;;3.20;;
16822;SDS011;8528;49.976;11.858;2023-07-20T06:04:56;3.60;;;3.07;;
16822;SDS011;8528;49.976;11.858;2023-07-20T06:07:22;3.60;;;3.30;;
16822;SDS011;8528;49.976;11.858;2023-07-20T06:09:49;4.33;;;3.13;;
16822;SDS011;8528;49.976;11.858;2023-07-20T06:12:16;4.00;;;3.00;;
16822;SDS011;8528;49.976;11.858;2023-07-20T06:14:43;5.60;;;3.07;;
16822;SDS011;8528;49.976;11.858;2023-07-20T06:17:10;3.93;;;3.57;;
16822;SDS011;8528;49.976;11.858;2023-07-20T06:19:36;3.80;;;3.03;;
16822;SDS011;8528;49.976;11.858;2023-07-20T06:22:03;4.37;;;2.87;;
16822;SDS011;8528;49.976;11.858;2023-07-20T06:24:30;3.40;;;3.10;;
16822;SDS011;8528;49.976;11.858;2023-07-20T06:26:57;4.07;;;2.80;;
16822;SDS011;8528;49.976;11.858;2023-07-20T06:29:24;4.50;;;3.70;;
16822;SDS011;8528;49.976;11.858;2023-07-20T06:31:51;3.38;;;3.08;;
16822;SDS011;8528;49.976;11.858;2023-07-20T06:34:18;5.97;;;3.55;;
16822;SDS011;8528;49.976;11.858;2023-07-20T06:36:49;5.82;;;3.40;;
16822;SDS011;8528;49.976;11.858;2023-07-20T06:39:16;7.07;;;3.92;;
16822;SDS011;8528;49.976;11.858;2023-07-20T06:41:45;4.35;;;2.90;;
16822;SDS011;8528;49.976;11.858;2023-07-20T06:44:12;3.55;;;2.97;;
16822;SDS011;8528;49.976;11.858;2023-07-20T06:46:38;5.30;;;3.53;;
16822;SDS011;8528;49.976;11.858;2023-07-20T06:49:06;3.70;;;3.00;;
16822;SDS011;8528;49.976;11.858;2023-07-20T06:51:37;3.00;;;2.70;;
16822;SDS011;8528;49.976;11.858;2023-07-20T06:54:04;4.18;;;3.88;;
16822;SDS011;8528;49.976;11.858;2023-07-20T06:56:31;3.25;;;2.95;;
16822;SDS011;8528;49.976;11.858;2023-07-20T06:58:59;3.63;;;2.90;;
16822;SDS011;8528;49.976;11.858;2023-07-20T07:01:26;3.28;;;2.97;;
16822;SDS011;8528;49.976;11.858;2023-07-20T07:03:53;4.53;;;3.38;;
16822;SDS011;8528;49.976;11.858;2023-07-20T07:06:21;3.30;;;3.00;;
16822;SDS011;8528;49.976;11.858;2023-07-20T07:08:50;3.25;;;2.92;;
16822;SDS011;8528;49.976;11.858;2023-07-20T07:11:16;3.78;;;3.00;;
16822;SDS011;8528;49.976;11.858;2023-07-20T07:13:43;4.25;;;3.00;;
16822;SDS011;8528;49.976;11.858;2023-07-20T07:16:12;3.97;;;3.30;;
16822;SDS011;8528;49.976;11.858;2023-07-20T07:18:46;3.70;;;3.25;;
16822;SDS011;8528;49.976;11.858;2023-07-20T07:21:13;5.28;;;3.40;;
16822;SDS011;8528;49.976;11.858;2023-07-20T07:23:40;4.82;;;3.22;;
16822;SDS011;8528;49.976;11.858;2023-07-20T07:26:07;3.30;;;3.00;;
16822;SDS011;8528;49.976;11.858;2023-07-20T07:28:33;5.75;;;2.88;;
16822;SDS011;8528;49.976;11.858;2023-07-20T07:31:00;4.05;;;3.15;;
16822;SDS011;8528;49.976;11.858;2023-07-20T07:33:30;3.83;;;3.00;;
16822;SDS011;8528;49.976;11.858;2023-07-20T07:35:57;3.42;;;3.10;;
16822;SDS011;8528;49.976;11.858;2023-07-20T07:38:27;2.90;;;2.70;;
16822;SDS011;8528;49.976;11.858;2023-07-20T07:41:14;4.90;;;3.05;;
16822;SDS011;8528;49.976;11.858;2023-07-20T07:43:41;3.28;;;2.50;;
16822;SDS011;8528;49.976;11.858;2023-07-20T07:46:09;5.13;;;2.55;;
16822;SDS011;8528;49.976;11.858;2023-07-20T07:48:36;5.00;;;2.47;;
16822;SDS011;8528;49.976;11.858;2023-07-20T07:51:02;3.30;;;2.30;;
16822;SDS011;8528;49.976;11.858;2023-07-20T07:53:29;4.30;;;2.55;;
16822;SDS011;8528;49.976;11.858;2023-07-20T07:55:56;2.75;;;2.03;;
16822;SDS011;8528;49.976;11.858;2023-07-20T07:58:23;2.45;;;1.83;;
16822;SDS011;8528;49.976;11.858;2023-07-20T08:00:50;4.90;;;2.53;;
16822;SDS011;8528;49.976;11.858;2023-07-20T08:03:17;2.55;;;2.10;;
16822;SDS011;8528;49.976;11.858;2023-07-20T08:05:45;3.80;;;2.00;;
16822;SDS011;8528;49.976;11.858;2023-07-20T08:08:12;5.00;;;2.63;;
16822;SDS011;8528;49.976;11.858;2023-07-20T08:10:39;4.43;;;2.40;;
16822;SDS011;8528;49.976;11.858;2023-07-20T08:13:06;3.53;;;2.22;;
16822;SDS011;8528;49.976;11.858;2023-07-20T08:15:33;2.88;;;2.30;;
16822;SDS011;8528;49.976;11.858;2023-07-20T08:17:59;3.13;;;2.13;;
16822;SDS011;8528;49.976;11.858;2023-07-20T08:20:26;3.30;;;2.20;;
16822;SDS011;8528;49.976;11.858;2023-07-20T08:22:54;2.28;;;1.70;;
16822;SDS011;8528;49.976;11.858;2023-07-20T08:25:21;3.88;;;1.92;;
16822;SDS011;8528;49.976;11.858;2023-07-20T08:27:48;2.42;;;1.90;;
16822;SDS011;8528;49.976;11.858;2023-07-20T08:30:15;2.10;;;1.85;;
16822;SDS011;8528;49.976;11.858;2023-07-20T08:32:42;3.25;;;1.88;;
16822;SDS011;8528;49.976;11.858;2023-07-20T08:35:09;3.65;;;1.95;;
16822;SDS011;8528;49.976;11.858;2023-07-20T08:37:36;2.50;;;1.70;;
16822;SDS011;8528;49.976;11.858;2023-07-20T08:40:03;3.92;;;2.10;;
16822;SDS011;8528;49.976;11.858;2023-07-20T08:42:30;1.88;;;1.70;;
16822;SDS011;8528;49.976;11.858;2023-07-20T08:44:57;1.60;;;1.50;;
16822;SDS011;8528;49.976;11.858;2023-07-20T08:47:25;2.10;;;1.85;;
16822;SDS011;8528;49.976;11.858;2023-07-20T08:49:53;2.05;;;1.80;;
16822;SDS011;8528;49.976;11.858;2023-07-20T08:52:21;2.95;;;2.20;;
16822;SDS011;8528;49.976;11.858;2023-07-20T08:54:47;2.35;;;1.88;;
16822;SDS011;8528;49.976;11.858;2023-07-20T08:57:15;3.28;;;2.10;;
16822;SDS011;8528;49.976;11.858;2023-07-20T08:59:43;2.53;;;2.00;;
16822;SDS011;8528;49.976;11.858;2023-07-20T09:02:11;3.28;;;1.83;;
16822;SDS011;8528;49.976;11.858;2023-07-20T09:04:45;3.40;;;1.80;;
16822;SDS011;8528;49.976;11.858;2023-07-20T09:07:11;3.47;;;1.80;;
16822;SDS011;8528;49.976;11.858;2023-07-20T09:09:40;2.88;;;1.90;;
16822;SDS011;8528;49.976;11.858;2023-07-20T09:12:13;2.42;;;1.90;;
16822;SDS011;8528;49.976;11.858;2023-07-20T09:14:45;2.13;;;1.85;;
16822;SDS011;8528;49.976;11.858;2023-07-20T09:17:12;2.83;;;1.70;;
16822;SDS011;8528;49.976;11.858;2023-07-20T09:19:47;2.08;;;1.88;;
16822;SDS011;8528;49.976;11.858;2023-07-20T09:22:14;3.38;;;2.05;;
16822;SDS011;8528;49.976;11.858;2023-07-20T09:24:41;2.72;;;2.20;;
16822;SDS011;8528;49.976;11.858;2023-07-20T09:27:10;4.72;;;2.28;;
16822;SDS011;8528;49.976;11.858;2023-07-20T09:29:50;2.45;;;1.92;;
16822;SDS011;8528;49.976;11.858;2023-07-20T09:32:21;4.03;;;1.90;;
16822;SDS011;8528;49.976;11.858;2023-07-20T09:34:50;2.00;;;1.80;;
16822;SDS011;8528;49.976;11.858;2023-07-20T09:37:22;3.25;;;1.50;;
16822;SDS011;8528;49.976;11.858;2023-07-20T09:39:51;2.80;;;1.90;;
16822;SDS011;8528;49.976;11.858;2023-07-20T09:42:22;3.13;;;1.80;;
16822;SDS011;8528;49.976;11.858;2023-07-20T09:44:54;2.05;;;1.60;;
16822;SDS011;8528;49.976;11.858;2023-07-20T09:47:22;2.47;;;1.60;;
16822;SDS011;8528;49.976;11.858;2023-07-20T09:49:59;2.20;;;1.70;;
16822;SDS011;8528;49.976;11.858;2023-07-20T09:52:32;3.20;;;1.63;;
16822;SDS011;8528;49.976;11.858;2023-07-20T09:55:03;2.58;;;1.70;;
16822;SDS011;8528;49.976;11.858;2023-07-20T09:57:32;3.83;;;1.70;;
16822;SDS011;8528;49.976;11.858;2023-07-20T10:00:00;3.13;;;1.63;;
16822;SDS011;8528;49.976;11.858;2023-07-20T10:02:36;2.30;;;1.60;;
16822;SDS011;8528;49.976;11.858;2023-07-20T10:05:10;3.05;;;1.67;;
16822;SDS011;8528;49.976;11.858;2023-07-20T10:07:50;1.63;;;1.50;;
16822;SDS011;8528;49.976;11.858;2023-07-20T10:10:38;2.38;;;1.63;;
16822;SDS011;8528;49.976;11.858;2023-07-20T10:13:10;2.75;;;1.73;;
16822;SDS011;8528;49.976;11.858;2023-07-20T10:15:45;1.67;;;1.58;;
16822;SDS011;8528;49.976;11.858;2023-07-20T10:21:06;2.55;;;1.98;;
16822;SDS011;8528;49.976;11.858;2023-07-20T10:23:37;2.33;;;1.60;;
16822;SDS011;8528;49.976;11.858;2023-07-20T10:26:05;2.03;;;1.73;;
16822;SDS011;8528;49.976;11.858;2023-07-20T10:28:39;1.88;;;1.50;;
16822;SDS011;8528;49.976;11.858;2023-07-20T10:34:03;1.85;;;1.40;;
16822;SDS011;8528;49.976;11.858;2023-07-20T10:36:31;1.80;;;1.55;;
16822;SDS011;8528;49.976;11.858;2023-07-20T10:38:57;2.65;;;1.52;;
16822;SDS011;8528;49.976;11.858;2023-07-20T10:41:28;2.85;;;1.80;;
16822;SDS011;8528;49.976;11.858;2023-07-20T10:44:03;4.00;;;1.60;;
16822;SDS011;8528;49.976;11.858;2023-07-20T10:49:09;2.63;;;2.00;;
16822;SDS011;8528;49.976;11.858;2023-07-20T10:51:44;2.05;;;1.65;;
16822;SDS011;8528;49.976;11.858;2023-07-20T10:57:23;2.17;;;1.40;;
16822;SDS011;8528;49.976;11.858;2023-07-20T10:59:51;2.10;;;1.60;;
16822;SDS011;8528;49.976;11.858;2023-07-20T11:02:20;1.65;;;1.55;;
16822;SDS011;8528;49.976;11.858;2023-07-20T11:04:47;1.70;;;1.60;;
16822;SDS011;8528;49.976;11.858;2023-07-20T11:07:16;3.22;;;1.55;;
16822;SDS011;8528;49.976;11.858;2023-07-20T11:09:45;6.95;;;2.03;;
16822;SDS011;8528;49.976;11.858;2023-07-20T11:12:15;2.55;;;1.50;;
16822;SDS011;8528;49.976;11.858;2023-07-20T11:14:52;1.85;;;1.63;;
16822;SDS011;8528;49.976;11.858;2023-07-20T11:17:22;2.78;;;1.65;;
16822;SDS011;8528;49.976;11.858;2023-07-20T11:19:56;9.18;;;1.73;;
16822;SDS011;8528;49.976;11.858;2023-07-20T11:22:27;1.65;;;1.48;;
16822;SDS011;8528;49.976;11.858;2023-07-20T11:24:57;2.23;;;1.87;;
16822;SDS011;8528;49.976;11.858;2023-07-20T11:27:25;3.33;;;1.77;;
16822;SDS011;8528;49.976;11.858;2023-07-20T11:29:53;1.60;;;1.50;;
16822;SDS011;8528;49.976;11.858;2023-07-20T11:32:20;2.23;;;1.60;;
16822;SDS011;8528;49.976;11.858;2023-07-20T11:34:48;2.93;;;1.70;;
16822;SDS011;8528;49.976;11.858;2023-07-20T11:37:15;13.47;;;2.13;;
16822;SDS011;8528;49.976;11.858;2023-07-20T11:39:46;2.17;;;1.97;;
16822;SDS011;8528;49.976;11.858;2023-07-20T11:42:13;2.90;;;1.60;;
16822;SDS011;8528;49.976;11.858;2023-07-20T11:45:01;2.10;;;1.47;;
16822;SDS011;8528;49.976;11.858;2023-07-20T11:47:31;2.77;;;2.13;;
16822;SDS011;8528;49.976;11.858;2023-07-20T11:50:02;2.37;;;1.70;;
16822;SDS011;8528;49.976;11.858;2023-07-20T11:52:30;3.27;;;1.70;;
16822;SDS011;8528;49.976;11.858;2023-07-20T11:54:57;2.15;;;1.70;;
16822;SDS011;8528;49.976;11.858;2023-07-20T11:57:24;2.70;;;1.87;;
16822;SDS011;8528;49.976;11.858;2023-07-20T12:00:00;2.80;;;1.63;;
16822;SDS011;8528;49.976;11.858;2023-07-20T12:02:35;2.93;;;1.70;;
16822;SDS011;8528;49.976;11.858;2023-07-20T12:05:03;3.80;;;1.60;;
16822;SDS011;8528;49.976;11.858;2023-07-20T12:07:34;2.40;;;1.63;;
16822;SDS011;8528;49.976;11.858;2023-07-20T12:10:16;2.50;;;1.50;;
16822;SDS011;8528;49.976;11.858;2023-07-20T12:12:49;3.23;;;1.80;;
16822;SDS011;8528;49.976;11.858;2023-07-20T12:15:17;3.93;;;1.70;;
16822;SDS011;8528;49.976;11.858;2023-07-20T12:17:59;1.93;;;1.70;;
16822;SDS011;8528;49.976;11.858;2023-07-20T12:20:31;2.63;;;1.73;;
16822;SDS011;8528;49.976;11.858;2023-07-20T12:23:01;2.80;;;1.90;;
16822;SDS011;8528;49.976;11.858;2023-07-20T12:25:32;3.90;;;1.73;;
16822;SDS011;8528;49.976;11.858;2023-07-20T12:31:53;2.55;;;1.90;;
16822;SDS011;8528;49.976;11.858;2023-07-20T12:34:19;3.53;;;2.20;;
16822;SDS011;8528;49.976;11.858;2023-07-20T12:36:46;2.33;;;1.60;;
16822;SDS011;8528;49.976;11.858;2023-07-20T12:39:13;2.83;;;1.60;;
16822;SDS011;8528;49.976;11.858;2023-07-20T12:41:40;2.42;;;1.63;;
16822;SDS011;8528;49.976;11.858;2023-07-20T12:44:25;1.85;;;1.65;;
16822;SDS011;8528;49.976;11.858;2023-07-20T12:46:53;2.42;;;1.90;;
16822;SDS011;8528;49.976;11.858;2023-07-20T12:49:20;8.32;;;2.08;;
16822;SDS011;8528;49.976;11.858;2023-07-20T12:51:46;2.33;;;1.98;;
16822;SDS011;8528;49.976;11.858;2023-07-20T12:54:14;4.03;;;1.88;;
16822;SDS011;8528;49.976;11.858;2023-07-20T12:56:41;3.37;;;2.10;;
16822;SDS011;8528;49.976;11.858;2023-07-20T12:59:10;4.40;;;1.70;;
16822;SDS011;8528;49.976;11.858;2023-07-20T13:01:37;2.97;;;1.70;;
16822;SDS011;8528;49.976;11.858;2023-07-20T13:04:04;4.10;;;2.10;;
16822;SDS011;8528;49.976;11.858;2023-07-20T13:06:34;2.20;;;1.60;;
16822;SDS011;8528;49.976;11.858;2023-07-20T13:09:02;2.70;;;1.97;;
16822;SDS011;8528;49.976;11.858;2023-07-20T13:11:29;2.30;;;1.70;;
16822;SDS011;8528;49.976;11.858;2023-07-20T13:13:56;1.60;;;1.45;;
16822;SDS011;8528;49.976;11.858;2023-07-20T13:16:22;2.25;;;1.73;;
16822;SDS011;8528;49.976;11.858;2023-07-20T13:18:49;1.87;;;1.77;;
16822;SDS011;8528;49.976;11.858;2023-07-20T13:21:16;3.87;;;2.03;;
16822;SDS011;8528;49.976;11.858;2023-07-20T13:23:46;2.75;;;1.70;;
16822;SDS011;8528;49.976;11.858;2023-07-20T13:26:13;4.80;;;2.00;;
16822;SDS011;8528;49.976;11.858;2023-07-20T13:28:41;3.20;;;1.75;;
16822;SDS011;8528;49.976;11.858;2023-07-20T13:31:08;2.75;;;1.92;;
16822;SDS011;8528;49.976;11.858;2023-07-20T13:33:39;3.00;;;2.10;;
16822;SDS011;8528;49.976;11.858;2023-07-20T13:36:06;2.17;;;1.92;;
16822;SDS011;8528;49.976;11.858;2023-07-20T13:38:35;2.47;;;1.90;;
16822;SDS011;8528;49.976;11.858;2023-07-20T13:41:01;2.20;;;1.80;;
16822;SDS011;8528;49.976;11.858;2023-07-20T13:43:28;2.60;;;1.90;;
16822;SDS011;8528;49.976;11.858;2023-07-20T13:45:55;2.53;;;1.77;;
16822;SDS011;8528;49.976;11.858;2023-07-20T13:48:22;3.20;;;1.90;;
16822;SDS011;8528;49.976;11.858;2023-07-20T13:50:53;3.57;;;1.77;;
16822;SDS011;8528;49.976;11.858;2023-07-20T13:53:29;2.07;;;1.97;;
16822;SDS011;8528;49.976;11.858;2023-07-20T13:55:59;2.90;;;1.77;;
16822;SDS011;8528;49.976;11.858;2023-07-20T13:58:29;4.67;;;2.27;;
16822;SDS011;8528;49.976;11.858;2023-07-20T14:00:57;4.20;;;1.80;;
16822;SDS011;8528;49.976;11.858;2023-07-20T14:03:24;2.30;;;1.83;;
16822;SDS011;8528;49.976;11.858;2023-07-20T14:05:51;3.87;;;3.10;;
16822;SDS011;8528;49.976;11.858;2023-07-20T14:08:20;3.47;;;2.30;;
16822;SDS011;8528;49.976;11.858;2023-07-20T14:10:47;3.40;;;1.93;;
16822;SDS011;8528;49.976;11.858;2023-07-20T14:13:17;3.57;;;2.00;;
16822;SDS011;8528;49.976;11.858;2023-07-20T14:15:44;2.23;;;1.77;;
16822;SDS011;8528;49.976;11.858;2023-07-20T14:18:11;2.80;;;2.30;;
16822;SDS011;8528;49.976;11.858;2023-07-20T14:20:38;2.60;;;1.90;;
16822;SDS011;8528;49.976;11.858;2023-07-20T14:23:05;2.17;;;1.87;;
16822;SDS011;8528;49.976;11.858;2023-07-20T14:25:32;3.80;;;2.00;;
16822;SDS011;8528;49.976;11.858;2023-07-20T14:28:03;2.10;;;1.90;;
16822;SDS011;8528;49.976;11.858;2023-07-20T14:30:30;2.03;;;1.83;;
16822;SDS011;8528;49.976;11.858;2023-07-20T14:32:57;4.53;;;1.90;;
16822;SDS011;8528;49.976;11.858;2023-07-20T14:35:23;3.20;;;2.10;;
16822;SDS011;8528;49.976;11.858;2023-07-20T14:37:51;4.03;;;1.93;;
16822;SDS011;8528;49.976;11.858;2023-07-20T14:40:18;5.20;;;2.40;;
16822;SDS011;8528;49.976;11.858;2023-07-20T14:42:45;6.00;;;2.33;;
16822;SDS011;8528;49.976;11.858;2023-07-20T14:45:12;4.00;;;1.80;;
16822;SDS011;8528;49.976;11.858;2023-07-20T14:47:40;2.20;;;2.00;;
16822;SDS011;8528;49.976;11.858;2023-07-20T14:50:07;2.80;;;1.93;;
16822;SDS011;8528;49.976;11.858;2023-07-20T14:52:34;3.00;;;2.00;;
16822;SDS011;8528;49.976;11.858;2023-07-20T14:55:01;2.07;;;1.70;;
16822;SDS011;8528;49.976;11.858;2023-07-20T14:57:28;7.67;;;2.57;;
16822;SDS011;8528;49.976;11.858;2023-07-20T14:59:54;2.77;;;2.23;;
16822;SDS011;8528;49.976;11.858;2023-07-20T15:02:21;1.97;;;1.70;;
16822;SDS011;8528;49.976;11.858;2023-07-20T15:04:49;4.47;;;2.13;;
16822;SDS011;8528;49.976;11.858;2023-07-20T15:07:17;3.33;;;2.00;;
16822;SDS011;8528;49.976;11.858;2023-07-20T15:09:45;2.80;;;2.20;;
16822;SDS011;8528;49.976;11.858;2023-07-20T15:12:12;2.10;;;1.87;;
16822;SDS011;8528;49.976;11.858;2023-07-20T15:14:42;3.37;;;1.97;;
16822;SDS011;8528;49.976;11.858;2023-07-20T15:17:10;2.53;;;1.93;;